Time;durP1;ratioP1;P1;durP2;ratioP2;P2;SDS_P1;SDS_P2;PMS_P1;PMS_P2;Temp;Humidity;BMP_temperature;BMP_pressure;BME280_temperature;BME280_humidity;BME280_pressure;Samples;Min_cycle;Max_cycle;Signal;HPM_P1;HPM_P2
2020/12/02 00:00:40;;;;;;;7.50;6.80;;;;;21.20;100846.00;;;;2085914;28;20219;-49
2020/12/02 00:01:40;;;;;;;7.53;6.72;;;;;21.30;100852.00;;;;2086226;28;20279;-50
2020/12/02 00:02:58;;;;;;;6.60;6.00;;;;;21.20;100844.00;;;;2086690;28;20689;-51
2020/12/02 00:04:06;;;;;;;6.15;5.55;;;;;21.30;100847.00;;;;2086636;28;20218;-50
2020/12/02 00:05:09;;;;;;;6.43;5.80;;;;;21.20;100854.00;;;;2084954;28;20844;-48
2020/12/02 00:06:10;;;;;;;7.35;6.65;;;;;21.30;100847.00;;;;2086168;28;20213;-49
2020/12/02 00:07:10;;;;;;;6.57;5.97;;;;;21.30;100855.00;;;;2086262;28;20311;-48
2020/12/02 00:08:14;;;;;;;6.03;5.47;;;;;21.30;100846.00;;;;2084455;28;20215;-50
2020/12/02 00:09:17;;;;;;;6.50;5.90;;;;;21.30;100853.00;;;;2086273;28;20217;-51
2020/12/02 00:10:17;;;;;;;6.60;6.00;;;;;21.20;100851.00;;;;2086734;28;20215;-49
2020/12/02 00:11:17;;;;;;;5.90;5.40;;;;;21.20;100853.00;;;;2087021;28;20337;-49
2020/12/02 00:12:18;;;;;;;5.77;5.27;;;;;21.20;100847.00;;;;2086596;28;20227;-48
2020/12/02 00:13:24;;;;;;;6.07;5.57;;;;;21.20;100849.00;;;;2081486;28;20240;-48
2020/12/02 00:14:28;;;;;;;6.85;6.25;;;;;21.20;100856.00;;;;2086778;28;20214;-48
2020/12/02 00:15:29;;;;;;;6.20;5.60;;;;;21.20;100856.00;;;;2086665;28;20753;-51
2020/12/02 00:16:30;;;;;;;6.23;5.63;;;;;21.20;100833.00;;;;2086794;28;20689;-49
2020/12/02 00:17:30;;;;;;;5.47;5.00;;;;;21.10;100857.00;;;;2086705;28;20203;-49
2020/12/02 00:18:30;;;;;;;5.97;5.30;;;;;21.20;100839.00;;;;2087142;28;20223;-49
2020/12/02 00:19:31;;;;;;;5.10;4.70;;;;;21.20;100855.00;;;;2086142;28;20211;-51
2020/12/02 00:20:32;;;;;;;5.40;4.90;;;;;21.20;100846.00;;;;2086251;28;20233;-49
2020/12/02 00:21:32;;;;;;;5.53;4.53;;;;;21.10;100845.00;;;;2081212;28;20204;-49
2020/12/02 00:22:35;;;;;;;5.20;4.70;;;;;21.10;100850.00;;;;2086923;28;20258;-48
2020/12/02 00:23:35;;;;;;;5.20;4.63;;;;;21.10;100845.00;;;;2086745;28;20362;-49
2020/12/02 00:24:36;;;;;;;5.40;4.47;;;;;21.10;100853.00;;;;2086028;28;20233;-49
2020/12/02 00:25:36;;;;;;;4.73;4.33;;;;;21.10;100848.00;;;;2086314;28;20248;-49
2020/12/02 00:26:36;;;;;;;5.47;4.97;;;;;21.10;100852.00;;;;2086989;28;20602;-48
2020/12/02 00:27:37;;;;;;;4.90;4.50;;;;;21.10;100849.00;;;;2086543;28;20647;-49
2020/12/02 00:28:37;;;;;;;4.20;3.80;;;;;21.10;100847.00;;;;2086361;28;20223;-49
2020/12/02 00:29:37;;;;;;;5.17;4.67;;;;;21.10;100854.00;;;;2085972;28;20247;-49
2020/12/02 00:30:38;;;;;;;4.43;4.03;;;;;21.10;100845.00;;;;2086770;28;20245;-49
2020/12/02 00:31:38;;;;;;;4.80;4.40;;;;;21.10;100854.00;;;;2086559;28;20250;-49
2020/12/02 00:32:41;;;;;;;3.83;3.53;;;;;21.10;100845.00;;;;2083320;28;20703;-48
2020/12/02 00:33:41;;;;;;;4.40;4.00;;;;;21.00;100856.00;;;;2086590;28;20215;-50
2020/12/02 00:34:42;;;;;;;4.77;4.37;;;;;21.10;100855.00;;;;2085836;28;20226;-49
2020/12/02 00:35:42;;;;;;;4.57;4.17;;;;;21.00;100849.00;;;;2086179;28;20204;-49
2020/12/02 00:36:42;;;;;;;4.43;4.10;;;;;21.00;100854.00;;;;2087039;28;20200;-48
2020/12/02 00:37:43;;;;;;;4.20;3.83;;;;;21.00;100851.00;;;;2086654;28;20292;-48
2020/12/02 00:38:43;;;;;;;4.30;3.90;;;;;21.00;100851.00;;;;2086945;28;20222;-50
2020/12/02 00:39:44;;;;;;;4.10;3.80;;;;;21.00;100846.00;;;;2086838;28;20295;-50
2020/12/02 00:40:44;;;;;;;4.33;3.93;;;;;21.10;100850.00;;;;2086363;28;20356;-48
2020/12/02 00:41:46;;;;;;;4.10;3.70;;;;;21.10;100857.00;;;;2086924;28;20211;-49
2020/12/02 00:42:47;;;;;;;3.90;3.60;;;;;21.00;100856.00;;;;2086569;28;20208;-48
2020/12/02 00:43:47;;;;;;;4.27;3.87;;;;;21.00;100855.00;;;;2086300;28;20690;-49
2020/12/02 00:44:48;;;;;;;4.03;3.70;;;;;21.00;100861.00;;;;2086062;28;20246;-48
2020/12/02 00:45:48;;;;;;;4.07;3.77;;;;;21.00;100856.00;;;;2086580;28;20212;-49
2020/12/02 00:46:49;;;;;;;3.57;3.27;;;;;21.00;100847.00;;;;2086929;28;20772;-48
2020/12/02 00:47:50;;;;;;;3.77;3.47;;;;;21.00;100849.00;;;;2086039;28;20299;-49
2020/12/02 00:48:51;;;;;;;3.45;3.15;;;;;21.00;100858.00;;;;2081014;28;20220;-50
2020/12/02 00:49:54;;;;;;;3.53;3.22;;;;;21.00;100848.00;;;;2075894;28;20266;-48
2020/12/02 00:50:54;;;;;;;3.20;2.90;;;;;21.00;100866.00;;;;2079837;28;20316;-49
2020/12/02 00:51:55;;;;;;;3.97;3.57;;;;;21.00;100859.00;;;;2080825;28;20213;-49
2020/12/02 00:53:07;;;;;;;4.05;3.67;;;;;21.00;100855.00;;;;2078715;28;20220;-53
2020/12/02 00:54:08;;;;;;;3.20;2.90;;;;;21.00;100857.00;;;;2077950;28;20217;-48
2020/12/02 00:55:08;;;;;;;3.25;2.97;;;;;20.90;100858.00;;;;2076958;28;20216;-50
2020/12/02 00:56:09;;;;;;;3.60;3.37;;;;;20.90;100868.00;;;;2077951;28;20298;-49
2020/12/02 00:57:10;;;;;;;3.05;2.85;;;;;20.90;100854.00;;;;2078022;28;20216;-51
2020/12/02 00:58:15;;;;;;;3.40;3.10;;;;;21.00;100857.00;;;;2062689;28;20343;-49
2020/12/02 00:59:24;;;;;;;3.30;3.00;;;;;20.90;100861.00;;;;2067798;28;21209;-48
2020/12/02 01:00:26;;;;;;;3.53;3.22;;;;;20.90;100858.00;;;;2070681;28;20242;-49
2020/12/02 01:01:51;;;;;;;4.55;2.97;;;;;20.90;100858.00;;;;2069631;28;20216;-49
2020/12/02 01:02:58;;;;;;;2.85;2.65;;;;;20.90;100858.00;;;;2077543;28;20243;-48
2020/12/02 01:03:59;;;;;;;4.22;3.78;;;;;20.90;100854.00;;;;2078289;28;20219;-49
2020/12/02 01:04:59;;;;;;;3.17;2.83;;;;;20.90;100851.00;;;;2068478;28;20226;-48
2020/12/02 01:06:00;;;;;;;3.00;2.80;;;;;20.90;100851.00;;;;2069513;28;20221;-51
2020/12/02 01:07:00;;;;;;;3.03;2.80;;;;;20.90;100850.00;;;;2076505;28;20263;-50
2020/12/02 01:08:32;;;;;;;3.30;3.00;;;;;20.90;100861.00;;;;2078232;28;20303;-51
2020/12/02 01:09:33;;;;;;;2.70;2.50;;;;;20.90;100856.00;;;;2077371;28;20217;-49
2020/12/02 01:10:33;;;;;;;3.07;2.80;;;;;20.90;100855.00;;;;2080698;28;21180;-48
2020/12/02 01:11:33;;;;;;;3.50;3.20;;;;;20.90;100854.00;;;;2075364;28;20835;-49
2020/12/02 01:12:34;;;;;;;3.00;2.80;;;;;20.90;100855.00;;;;2069788;28;20236;-48
2020/12/02 01:13:34;;;;;;;3.00;2.70;;;;;20.90;100844.00;;;;2082359;28;20224;-48
2020/12/02 01:14:34;;;;;;;3.30;3.00;;;;;20.90;100857.00;;;;2084326;28;20219;-50
2020/12/02 01:15:35;;;;;;;2.83;2.63;;;;;20.90;100854.00;;;;2085753;28;20208;-49
2020/12/02 01:16:43;;;;;;;3.27;2.97;;;;;20.80;100850.00;;;;2086142;28;20212;-49
2020/12/02 01:17:43;;;;;;;2.85;2.65;;;;;20.80;100855.00;;;;2086627;28;20222;-49
2020/12/02 01:18:44;;;;;;;3.40;3.10;;;;;20.80;100855.00;;;;2086842;28;20211;-49
2020/12/02 01:19:44;;;;;;;3.33;3.10;;;;;20.80;100851.00;;;;2086566;28;20212;-50
2020/12/02 01:20:45;;;;;;;3.13;2.83;;;;;20.90;100848.00;;;;2085837;28;20669;-54
2020/12/02 01:21:50;;;;;;;3.07;2.87;;;;;20.80;100845.00;;;;2086628;28;20277;-50
2020/12/02 01:22:50;;;;;;;3.35;3.10;;;;;20.80;100843.00;;;;2085974;28;20231;-50
2020/12/02 01:23:59;;;;;;;3.47;3.17;;;;;20.80;100848.00;;;;2085928;28;20221;-51
2020/12/02 01:25:20;;;;;;;3.55;3.25;;;;;20.80;100854.00;;;;2083803;28;20220;-50
2020/12/02 01:26:20;;;;;;;3.45;3.15;;;;;20.80;100850.00;;;;2085216;28;20216;-50
2020/12/02 01:27:31;;;;;;;4.17;3.77;;;;;20.80;100843.00;;;;2077620;28;20987;-51
2020/12/02 01:28:32;;;;;;;3.70;3.40;;;;;20.90;100844.00;;;;2078722;28;20215;-48
2020/12/02 01:29:32;;;;;;;3.80;3.43;;;;;20.80;100843.00;;;;2060053;28;20207;-47
2020/12/02 01:30:34;;;;;;;3.20;3.00;;;;;20.80;100843.00;;;;2068985;28;20216;-48
2020/12/02 01:31:34;;;;;;;3.55;3.25;;;;;20.80;100835.00;;;;2077478;28;20224;-51
2020/12/02 01:32:35;;;;;;;3.90;3.60;;;;;20.80;100839.00;;;;2077520;28;20216;-48
2020/12/02 01:33:35;;;;;;;3.70;3.40;;;;;20.80;100838.00;;;;2078492;28;20227;-49
2020/12/02 01:34:36;;;;;;;3.50;3.20;;;;;20.70;100837.00;;;;2077603;28;20474;-48
2020/12/02 01:35:36;;;;;;;3.60;3.30;;;;;20.80;100833.00;;;;2078311;28;20221;-49
2020/12/02 01:37:10;;;;;;;3.50;3.20;;;;;20.80;100836.00;;;;2077762;28;20729;-49
2020/12/02 01:38:11;;;;;;;3.30;3.10;;;;;20.80;100834.00;;;;2069211;28;20217;-49
2020/12/02 01:39:11;;;;;;;4.20;3.80;;;;;20.80;100831.00;;;;2072131;28;20299;-50
2020/12/02 01:40:22;;;;;;;3.90;3.60;;;;;20.80;100838.00;;;;2061904;28;20700;-49
2020/12/02 01:41:22;;;;;;;3.83;3.53;;;;;20.70;100838.00;;;;2073531;28;20219;-48
2020/12/02 01:42:22;;;;;;;4.03;3.73;;;;;20.80;100829.00;;;;2086055;28;20648;-48
2020/12/02 01:43:23;;;;;;;4.70;4.30;;;;;20.80;100839.00;;;;2077746;28;20658;-49
2020/12/02 01:44:23;;;;;;;4.00;3.60;;;;;20.70;100844.00;;;;2076445;28;20309;-50
2020/12/02 01:45:26;;;;;;;4.70;4.30;;;;;20.70;100845.00;;;;2076116;28;20216;-50
2020/12/02 01:46:34;;;;;;;4.75;4.35;;;;;20.70;100837.00;;;;2077573;28;20210;-48
2020/12/02 01:47:49;;;;;;;4.20;3.90;;;;;20.70;100836.00;;;;2078228;28;20347;-48
2020/12/02 01:49:01;;;;;;;4.15;3.85;;;;;20.70;100832.00;;;;2089763;28;20221;-49
2020/12/02 01:50:36;;;;;;;4.25;3.88;;;;;20.70;100843.00;;;;2093711;28;20792;-51
2020/12/02 01:52:25;;;;;;;3.95;3.65;;;;;20.60;100846.00;;;;2084917;28;20645;-48
2020/12/02 01:53:46;;;;;;;4.35;3.97;;;;;20.70;100838.00;;;;2067217;28;20209;-50
2020/12/02 01:54:53;;;;;;;4.53;4.22;;;;;20.70;100846.00;;;;2078994;28;20236;-48
2020/12/02 01:55:57;;;;;;;4.57;4.18;;;;;20.60;100848.00;;;;2075378;28;20363;-50
2020/12/02 01:57:05;;;;;;;4.85;4.45;;;;;20.60;100838.00;;;;2064109;28;20210;-50
2020/12/02 01:58:16;;;;;;;7.93;3.75;;;;;20.70;100834.00;;;;2064953;28;20210;-48
2020/12/02 01:59:28;;;;;;;4.95;4.55;;;;;20.70;100829.00;;;;2080985;28;20236;-48
2020/12/02 02:00:32;;;;;;;4.40;4.10;;;;;20.70;100834.00;;;;2085915;28;20684;-49
2020/12/02 02:01:43;;;;;;;4.97;4.47;;;;;20.70;100833.00;;;;2078495;28;20211;-49
2020/12/02 02:03:03;;;;;;;4.88;4.47;;;;;20.60;100838.00;;;;2087481;28;20211;-48
2020/12/02 02:04:04;;;;;;;5.03;4.18;;;;;20.70;100843.00;;;;2078906;28;20307;-50
2020/12/02 02:05:12;;;;;;;4.80;4.40;;;;;20.60;100838.00;;;;2071792;28;20224;-50
2020/12/02 02:06:44;;;;;;;4.38;4.05;;;;;20.60;100844.00;;;;2079924;28;21028;-49
2020/12/02 02:07:45;;;;;;;6.45;4.65;;;;;20.60;100843.00;;;;2082135;28;20635;-49
2020/12/02 02:08:45;;;;;;;5.00;4.60;;;;;20.60;100836.00;;;;2087453;28;20234;-48
2020/12/02 02:09:46;;;;;;;5.13;4.73;;;;;20.60;100844.00;;;;2087973;28;20238;-48
2020/12/02 02:10:48;;;;;;;5.20;4.80;;;;;20.70;100845.00;;;;2087658;28;20230;-48
2020/12/02 02:11:49;;;;;;;5.30;4.90;;;;;20.60;100843.00;;;;2087673;28;20215;-49
2020/12/02 02:13:18;;;;;;;6.65;6.15;;;;;20.60;100843.00;;;;2079216;28;20283;-48
2020/12/02 02:14:35;;;;;;;5.68;5.07;;;;;20.60;100836.00;;;;2078812;28;20226;-51
2020/12/02 02:15:53;;;;;;;8.65;5.22;;;;;20.60;100847.00;;;;2062507;28;20420;-48
2020/12/02 02:16:53;;;;;;;6.13;5.53;;;;;20.60;100832.00;;;;2079882;28;20208;-49
2020/12/02 02:17:58;;;;;;;5.37;4.90;;;;;20.60;100837.00;;;;2076515;28;20212;-49
2020/12/02 02:18:59;;;;;;;5.53;5.03;;;;;20.60;100834.00;;;;2079660;28;20215;-50
2020/12/02 02:19:59;;;;;;;6.00;5.43;;;;;20.60;100843.00;;;;2078147;28;21173;-51
2020/12/02 02:21:08;;;;;;;5.90;5.30;;;;;20.60;100830.00;;;;2072256;28;20243;-51
2020/12/02 02:22:08;;;;;;;5.70;5.20;;;;;20.60;100822.00;;;;2079677;28;20219;-48
2020/12/02 02:23:09;;;;;;;6.17;5.67;;;;;20.50;100831.00;;;;2079175;28;20614;-51
2020/12/02 02:24:10;;;;;;;5.53;5.00;;;;;20.50;100828.00;;;;2078856;28;20217;-48
2020/12/02 02:25:10;;;;;;;6.63;6.03;;;;;20.50;100830.00;;;;2077991;28;20224;-49
2020/12/02 02:26:16;;;;;;;5.93;5.43;;;;;20.50;100830.00;;;;2070630;28;20213;-51
2020/12/02 02:27:16;;;;;;;7.47;6.65;;;;;20.50;100829.00;;;;2079082;28;20215;-48
2020/12/02 02:28:16;;;;;;;6.00;5.50;;;;;20.50;100826.00;;;;2086008;28;20273;-51
2020/12/02 02:29:31;;;;;;;6.80;6.20;;;;;20.50;100830.00;;;;2086978;28;20360;-49
2020/12/02 02:30:32;;;;;;;5.85;5.35;;;;;20.60;100823.00;;;;2066601;28;20225;-48
2020/12/02 02:32:03;;;;;;;6.90;6.30;;;;;20.50;100831.00;;;;2071605;28;20220;-48
2020/12/02 02:33:03;;;;;;;7.55;6.05;;;;;20.50;100828.00;;;;2078197;28;20211;-49
2020/12/02 02:34:03;;;;;;;6.60;6.10;;;;;20.50;100833.00;;;;2078374;28;20553;-49
2020/12/02 02:35:04;;;;;;;7.17;6.50;;;;;20.50;100825.00;;;;2065567;28;20220;-48
2020/12/02 02:36:04;;;;;;;6.17;5.63;;;;;20.50;100830.00;;;;2081619;28;20722;-49
2020/12/02 02:37:06;;;;;;;6.93;6.33;;;;;20.50;100830.00;;;;2082984;28;20353;-50
2020/12/02 02:38:06;;;;;;;7.10;6.50;;;;;20.50;100835.00;;;;2078526;28;20212;-49
2020/12/02 02:39:07;;;;;;;7.27;6.20;;;;;20.50;100824.00;;;;2076504;28;20300;-48
2020/12/02 02:40:09;;;;;;;6.93;6.32;;;;;20.30;100826.00;;;;2086709;28;20207;-49
2020/12/02 02:41:10;;;;;;;7.00;6.32;;;;;20.40;100818.00;;;;2079682;28;20216;-47
2020/12/02 02:42:27;;;;;;;6.87;6.17;;;;;20.40;100826.00;;;;2079249;28;20217;-50
2020/12/02 02:43:27;;;;;;;8.00;7.28;;;;;20.50;100820.00;;;;2080943;28;20787;-49
2020/12/02 02:44:28;;;;;;;6.90;6.30;;;;;20.40;100829.00;;;;2087234;28;20262;-48
2020/12/02 02:45:28;;;;;;;7.10;6.50;;;;;20.50;100825.00;;;;2086205;28;20222;-48
2020/12/02 02:46:28;;;;;;;7.63;6.93;;;;;20.40;100821.00;;;;2086935;28;20253;-49
2020/12/02 02:47:29;;;;;;;7.70;6.90;;;;;20.40;100826.00;;;;2087529;28;20496;-48
2020/12/02 02:48:31;;;;;;;8.50;7.80;;;;;20.40;100823.00;;;;2087388;28;20216;-50
2020/12/02 02:49:31;;;;;;;7.30;6.70;;;;;20.40;100827.00;;;;2081702;28;20222;-50
2020/12/02 02:50:32;;;;;;;7.73;7.03;;;;;20.40;100819.00;;;;2087453;28;20288;-49
2020/12/02 02:51:33;;;;;;;8.27;7.43;;;;;20.40;100821.00;;;;2087452;28;20649;-48
2020/12/02 02:52:33;;;;;;;8.03;7.27;;;;;20.40;100822.00;;;;2087194;28;20207;-50
2020/12/02 02:53:33;;;;;;;8.70;7.80;;;;;20.40;100820.00;;;;2087620;28;20765;-49
2020/12/02 02:54:34;;;;;;;8.23;7.47;;;;;20.40;100818.00;;;;2086670;28;21153;-48
2020/12/02 02:55:34;;;;;;;8.30;7.50;;;;;20.40;100822.00;;;;2087111;28;20848;-49
2020/12/02 02:56:34;;;;;;;8.40;7.60;;;;;20.40;100816.00;;;;2086812;28;20741;-48
2020/12/02 02:57:35;;;;;;;7.50;6.80;;;;;20.40;100819.00;;;;2082166;28;20215;-48
2020/12/02 02:58:35;;;;;;;8.50;7.70;;;;;20.40;100819.00;;;;2086449;28;20212;-49
2020/12/02 02:59:35;;;;;;;8.13;7.33;;;;;20.40;100830.00;;;;2086853;28;20222;-50
2020/12/02 03:00:36;;;;;;;8.87;7.97;;;;;20.40;100817.00;;;;2086744;28;20225;-49
2020/12/02 03:01:40;;;;;;;9.10;8.30;;;;;20.30;100823.00;;;;2086827;28;20687;-49
2020/12/02 03:02:40;;;;;;;8.55;7.75;;;;;20.30;100821.00;;;;2085614;28;20223;-49
2020/12/02 03:03:41;;;;;;;8.70;7.90;;;;;20.40;100824.00;;;;2085784;28;20222;-48
2020/12/02 03:04:41;;;;;;;8.17;7.47;;;;;20.40;100826.00;;;;2083597;28;20260;-49
2020/12/02 03:05:41;;;;;;;9.13;8.33;;;;;20.40;100830.00;;;;2086822;28;20227;-48
2020/12/02 03:06:42;;;;;;;8.20;7.40;;;;;20.40;100825.00;;;;2086195;28;20548;-50
2020/12/02 03:07:42;;;;;;;8.87;8.03;;;;;20.40;100829.00;;;;2086233;28;20230;-49
2020/12/02 03:08:42;;;;;;;9.70;8.80;;;;;20.30;100821.00;;;;2087059;28;20230;-47
2020/12/02 03:09:43;;;;;;;9.43;8.20;;;;;20.30;100827.00;;;;2086674;28;20867;-48
2020/12/02 03:10:44;;;;;;;10.00;8.57;;;;;20.30;100819.00;;;;2086506;28;20215;-50
2020/12/02 03:11:45;;;;;;;10.30;9.30;;;;;20.30;100818.00;;;;2083273;28;20457;-49
2020/12/02 03:12:45;;;;;;;9.93;8.93;;;;;20.40;100819.00;;;;2074569;28;20456;-48
2020/12/02 03:13:48;;;;;;;9.53;8.63;;;;;20.30;100817.00;;;;2074085;28;20278;-49
2020/12/02 03:14:48;;;;;;;8.93;8.02;;;;;20.30;100813.00;;;;2075455;28;20221;-50
2020/12/02 03:15:49;;;;;;;10.53;9.43;;;;;20.30;100816.00;;;;2060039;28;20652;-49
2020/12/02 03:16:51;;;;;;;9.30;8.50;;;;;20.30;100809.00;;;;2077492;28;20425;-51
2020/12/02 03:17:52;;;;;;;9.18;8.38;;;;;20.30;100809.00;;;;2087131;28;20463;-48
2020/12/02 03:18:54;;;;;;;9.53;8.53;;;;;20.30;100816.00;;;;2070665;28;20224;-50
2020/12/02 03:19:58;;;;;;;9.48;8.52;;;;;20.30;100816.00;;;;2062698;28;20217;-50
2020/12/02 03:21:02;;;;;;;10.10;9.10;;;;;20.30;100809.00;;;;2078064;28;20212;-49
2020/12/02 03:22:05;;;;;;;10.77;9.77;;;;;20.30;100817.00;;;;2078388;28;20620;-49
2020/12/02 03:23:11;;;;;;;9.98;8.98;;;;;20.30;100807.00;;;;2070436;28;20227;-48
2020/12/02 03:24:11;;;;;;;9.50;8.63;;;;;20.30;100813.00;;;;2070814;28;20220;-49
2020/12/02 03:25:13;;;;;;;9.70;8.77;;;;;20.30;100801.00;;;;2082107;28;20225;-48
2020/12/02 03:26:14;;;;;;;9.77;8.88;;;;;20.30;100805.00;;;;2086461;28;20232;-49
2020/12/02 03:27:14;;;;;;;9.67;8.77;;;;;20.30;100800.00;;;;2079218;28;20558;-50
2020/12/02 03:28:15;;;;;;;9.13;8.27;;;;;20.30;100802.00;;;;2079087;28;20322;-49
2020/12/02 03:29:16;;;;;;;9.50;8.50;;;;;20.30;100803.00;;;;2070644;28;20488;-49
2020/12/02 03:30:17;;;;;;;10.03;9.10;;;;;20.30;100804.00;;;;2079115;28;20223;-50
2020/12/02 03:31:18;;;;;;;9.77;8.80;;;;;20.30;100800.00;;;;2078671;28;20212;-49
2020/12/02 03:32:19;;;;;;;9.40;8.50;;;;;20.30;100803.00;;;;2078973;28;20976;-49
2020/12/02 03:33:19;;;;;;;10.20;9.20;;;;;20.30;100797.00;;;;2077674;28;20474;-51
2020/12/02 03:34:20;;;;;;;9.33;8.43;;;;;20.20;100797.00;;;;2078387;28;20725;-50
2020/12/02 03:35:20;;;;;;;9.07;8.17;;;;;20.30;100796.00;;;;2071462;28;20368;-50
2020/12/02 03:36:21;;;;;;;9.73;8.83;;;;;20.20;100790.00;;;;2086533;28;20250;-50
2020/12/02 03:37:21;;;;;;;9.67;8.87;;;;;20.20;100792.00;;;;2083764;28;20245;-49
2020/12/02 03:38:22;;;;;;;9.80;8.90;;;;;20.20;100795.00;;;;2078871;28;20219;-48
2020/12/02 03:39:22;;;;;;;10.57;9.07;;;;;20.20;100789.00;;;;2079182;28;20220;-47
2020/12/02 03:40:23;;;;;;;9.97;8.97;;;;;20.20;100795.00;;;;2078920;28;20669;-49
2020/12/02 03:41:23;;;;;;;9.53;8.63;;;;;20.20;100795.00;;;;2078768;28;20723;-49
2020/12/02 03:42:23;;;;;;;9.93;9.00;;;;;20.20;100785.00;;;;2078931;28;20202;-48
2020/12/02 03:43:24;;;;;;;10.13;8.83;;;;;20.20;100785.00;;;;2079027;28;20212;-49
2020/12/02 03:44:24;;;;;;;9.20;8.30;;;;;20.20;100783.00;;;;2078059;28;20303;-49
2020/12/02 03:45:24;;;;;;;9.27;8.43;;;;;20.20;100792.00;;;;2077305;28;20300;-48
2020/12/02 03:46:25;;;;;;;11.23;8.20;;;;;20.20;100786.00;;;;2078877;28;20211;-50
2020/12/02 03:47:25;;;;;;;10.10;9.13;;;;;20.20;100797.00;;;;2078971;28;20734;-48
2020/12/02 03:48:25;;;;;;;9.47;8.57;;;;;20.30;100790.00;;;;2069632;28;20322;-49
2020/12/02 03:49:26;;;;;;;9.50;8.60;;;;;20.20;100791.00;;;;2069872;28;20212;-50
2020/12/02 03:50:26;;;;;;;8.80;8.10;;;;;20.20;100795.00;;;;2072226;28;20212;-50
2020/12/02 03:51:26;;;;;;;8.93;8.13;;;;;20.20;100799.00;;;;2079035;28;20300;-50
2020/12/02 03:52:27;;;;;;;9.40;8.43;;;;;20.10;100797.00;;;;2078690;28;20215;-49
2020/12/02 03:53:27;;;;;;;9.87;8.87;;;;;20.20;100793.00;;;;2079052;28;20307;-50
2020/12/02 03:54:27;;;;;;;9.10;8.20;;;;;20.20;100798.00;;;;2078334;28;20207;-49
2020/12/02 03:55:28;;;;;;;8.43;7.63;;;;;20.20;100793.00;;;;2078027;28;20275;-48
2020/12/02 03:56:28;;;;;;;9.43;8.63;;;;;20.20;100797.00;;;;2078460;28;20872;-48
2020/12/02 03:57:28;;;;;;;9.70;8.80;;;;;20.20;100796.00;;;;2078216;28;21318;-48
2020/12/02 03:58:29;;;;;;;9.20;8.30;;;;;20.20;100792.00;;;;2078696;28;20228;-50
2020/12/02 03:59:29;;;;;;;8.80;7.90;;;;;20.10;100797.00;;;;2078602;28;20220;-50
2020/12/02 04:00:29;;;;;;;8.90;8.07;;;;;20.10;100800.00;;;;2078842;28;20741;-49
2020/12/02 04:01:30;;;;;;;9.30;8.40;;;;;20.10;100804.00;;;;2079056;28;20236;-51
2020/12/02 04:02:30;;;;;;;8.70;7.90;;;;;20.10;100797.00;;;;2078780;28;20235;-49
2020/12/02 04:03:30;;;;;;;9.97;8.93;;;;;20.10;100795.00;;;;2078605;28;20693;-49
2020/12/02 04:04:31;;;;;;;8.60;7.83;;;;;20.10;100805.00;;;;2078451;28;20759;-49
2020/12/02 04:05:31;;;;;;;9.90;9.00;;;;;20.10;100790.00;;;;2078535;28;20709;-49
2020/12/02 04:06:32;;;;;;;9.40;8.53;;;;;20.10;100795.00;;;;2077855;28;20228;-49
2020/12/02 04:07:32;;;;;;;9.87;8.87;;;;;20.10;100793.00;;;;2077797;28;20212;-49
2020/12/02 04:08:32;;;;;;;8.63;7.73;;;;;20.20;100794.00;;;;2079042;28;20221;-49
2020/12/02 04:09:33;;;;;;;8.80;7.90;;;;;20.10;100802.00;;;;2077802;28;20861;-51
2020/12/02 04:10:33;;;;;;;8.57;7.73;;;;;20.10;100802.00;;;;2078319;28;20345;-49
2020/12/02 04:11:33;;;;;;;10.60;9.03;;;;;20.10;100790.00;;;;2078842;28;20270;-51
2020/12/02 04:12:34;;;;;;;9.70;8.80;;;;;20.20;100793.00;;;;2078616;28;20264;-49
2020/12/02 04:13:34;;;;;;;8.33;7.53;;;;;20.10;100796.00;;;;2078655;28;20239;-49
2020/12/02 04:14:35;;;;;;;9.20;8.30;;;;;20.10;100799.00;;;;2077715;28;20221;-48
2020/12/02 04:15:35;;;;;;;8.90;8.00;;;;;20.10;100795.00;;;;2083013;28;20218;-48
2020/12/02 04:16:36;;;;;;;8.60;7.80;;;;;20.10;100792.00;;;;2086547;28;20246;-49
2020/12/02 04:17:36;;;;;;;9.27;8.43;;;;;20.10;100789.00;;;;2086892;28;20215;-48
2020/12/02 04:18:37;;;;;;;8.70;7.80;;;;;20.10;100794.00;;;;2085422;28;20449;-48
2020/12/02 04:19:37;;;;;;;9.67;8.77;;;;;20.10;100791.00;;;;2086880;28;20211;-48
2020/12/02 04:20:37;;;;;;;10.70;8.13;;;;;20.10;100787.00;;;;2086805;28;20224;-48
2020/12/02 04:21:38;;;;;;;9.80;8.90;;;;;20.10;100796.00;;;;2086759;28;20754;-51
2020/12/02 04:22:38;;;;;;;9.30;8.40;;;;;20.10;100792.00;;;;2086757;28;20225;-49
2020/12/02 04:23:38;;;;;;;9.17;8.20;;;;;20.10;100791.00;;;;2086761;28;20225;-49
2020/12/02 04:24:39;;;;;;;9.70;8.73;;;;;20.10;100783.00;;;;2085160;28;20848;-49
2020/12/02 04:25:39;;;;;;;8.90;8.10;;;;;20.10;100781.00;;;;2086849;28;20593;-50
2020/12/02 04:26:40;;;;;;;8.33;7.53;;;;;20.10;100787.00;;;;2086966;28;20223;-50
2020/12/02 04:27:40;;;;;;;9.40;8.50;;;;;20.10;100776.00;;;;2086915;28;20223;-51
2020/12/02 04:28:40;;;;;;;10.13;9.10;;;;;20.10;100783.00;;;;2087065;28;20214;-50
2020/12/02 04:29:41;;;;;;;8.67;7.80;;;;;20.10;100778.00;;;;2087006;28;20701;-48
2020/12/02 04:30:43;;;;;;;9.63;8.30;;;;;20.00;100779.00;;;;2086971;28;20620;-49
2020/12/02 04:31:44;;;;;;;8.98;8.18;;;;;20.00;100778.00;;;;2086530;28;20218;-48
2020/12/02 04:32:45;;;;;;;9.30;8.40;;;;;20.10;100783.00;;;;2086901;28;20215;-50
2020/12/02 04:33:46;;;;;;;10.20;9.20;;;;;20.10;100782.00;;;;2086556;28;20206;-48
2020/12/02 04:34:46;;;;;;;8.80;7.90;;;;;20.00;100777.00;;;;2085494;28;20807;-50
2020/12/02 04:35:46;;;;;;;10.00;9.00;;;;;20.00;100780.00;;;;2086622;28;20210;-50
2020/12/02 04:36:48;;;;;;;9.20;8.30;;;;;20.00;100779.00;;;;2085639;28;20223;-49
2020/12/02 04:37:48;;;;;;;8.77;7.97;;;;;20.10;100775.00;;;;2085584;28;20310;-49
2020/12/02 04:38:48;;;;;;;9.20;8.30;;;;;20.10;100778.00;;;;2085577;28;20297;-48
2020/12/02 04:39:49;;;;;;;8.70;7.83;;;;;20.10;100778.00;;;;2082737;28;20297;-49
2020/12/02 04:40:49;;;;;;;9.53;8.57;;;;;20.00;100781.00;;;;2086199;28;20215;-49
2020/12/02 04:41:49;;;;;;;8.60;7.80;;;;;20.00;100779.00;;;;2086331;28;20213;-51
2020/12/02 04:42:55;;;;;;;9.33;8.43;;;;;20.00;100780.00;;;;2086520;28;20328;-51
2020/12/02 04:43:55;;;;;;;9.45;8.50;;;;;20.00;100779.00;;;;2085469;28;20211;-49
2020/12/02 04:44:55;;;;;;;9.63;8.67;;;;;20.00;100779.00;;;;2083396;28;20302;-49
2020/12/02 04:45:56;;;;;;;9.60;8.60;;;;;20.00;100782.00;;;;2083987;28;20220;-49
2020/12/02 04:46:56;;;;;;;9.47;8.50;;;;;19.90;100789.00;;;;2077275;28;20277;-47
2020/12/02 04:47:59;;;;;;;8.20;7.40;;;;;20.00;100783.00;;;;2085384;28;20223;-50
2020/12/02 04:49:10;;;;;;;9.43;8.50;;;;;20.00;100789.00;;;;2085156;28;20219;-48
2020/12/02 04:50:22;;;;;;;9.23;8.32;;;;;20.00;100780.00;;;;2064837;28;20823;-50
2020/12/02 04:51:24;;;;;;;9.20;8.30;;;;;20.00;100782.00;;;;2073319;28;20739;-48
2020/12/02 04:52:25;;;;;;;9.45;8.55;;;;;20.00;100772.00;;;;2085419;28;20282;-50
2020/12/02 04:53:25;;;;;;;9.57;8.67;;;;;20.00;100777.00;;;;2085734;28;20576;-49
2020/12/02 04:54:25;;;;;;;9.40;8.13;;;;;20.00;100775.00;;;;2084115;28;20798;-49
2020/12/02 04:55:26;;;;;;;9.13;8.30;;;;;20.00;100782.00;;;;2085237;28;20553;-48
2020/12/02 04:56:27;;;;;;;9.10;8.20;;;;;19.90;100781.00;;;;2085764;28;20289;-50
2020/12/02 04:57:28;;;;;;;9.55;8.65;;;;;20.00;100772.00;;;;2085732;28;20576;-49
2020/12/02 04:58:33;;;;;;;9.37;8.47;;;;;19.90;100767.00;;;;2086172;28;20231;-48
2020/12/02 04:59:37;;;;;;;9.10;8.20;;;;;20.00;100782.00;;;;2086193;28;20217;-50
2020/12/02 05:00:38;;;;;;;9.18;8.27;;;;;20.00;100784.00;;;;2084881;28;20209;-49
2020/12/02 05:01:52;;;;;;;9.43;8.47;;;;;20.00;100786.00;;;;2086105;28;20209;-48
2020/12/02 05:02:52;;;;;;;9.60;8.70;;;;;20.00;100781.00;;;;2086492;28;20207;-49
2020/12/02 05:04:02;;;;;;;10.03;8.83;;;;;20.00;100778.00;;;;2084163;28;20204;-48
2020/12/02 05:05:02;;;;;;;9.23;8.23;;;;;20.00;100785.00;;;;2076693;28;20225;-48
2020/12/02 05:06:02;;;;;;;9.20;8.30;;;;;20.00;100780.00;;;;2086030;28;20213;-49
2020/12/02 05:07:16;;;;;;;10.40;9.47;;;;;20.00;100787.00;;;;2078743;28;20218;-48
2020/12/02 05:08:21;;;;;;;9.40;8.50;;;;;20.00;100782.00;;;;2070302;28;20715;-48
2020/12/02 05:09:23;;;;;;;9.30;8.40;;;;;20.00;100781.00;;;;2077954;28;20237;-51
2020/12/02 05:10:23;;;;;;;10.48;8.85;;;;;20.00;100787.00;;;;2078541;28;20215;-49
2020/12/02 05:11:23;;;;;;;10.13;9.07;;;;;20.00;100783.00;;;;2078608;28;20215;-49